createdAt,value
2019-04-10T00:02:31.249Z,0.70
2019-04-10T00:05:12.060Z,0.70
2019-04-10T00:07:51.505Z,0.80
2019-04-10T00:10:32.012Z,0.40
2019-04-10T00:13:12.099Z,0.63
2019-04-10T00:15:52.851Z,0.40
2019-04-10T00:18:33.800Z,1.03
2019-04-10T00:21:14.164Z,0.40
2019-04-10T00:23:55.506Z,0.60
2019-04-10T00:26:35.923Z,0.40
2019-04-10T00:29:16.149Z,0.50
2019-04-10T00:31:56.404Z,0.50
2019-04-10T00:34:36.002Z,0.50
2019-04-10T00:37:23.669Z,0.50
2019-04-10T00:39:59.190Z,1.80
2019-04-10T00:42:38.893Z,0.50
2019-04-10T00:45:19.499Z,0.40
2019-04-10T00:47:59.656Z,0.50
2019-04-10T00:50:39.580Z,0.40
2019-04-10T00:53:19.779Z,0.60
2019-04-10T00:55:59.986Z,1.43
2019-04-10T00:58:40.186Z,0.60
2019-04-10T01:01:20.204Z,1.47
2019-04-10T01:04:00.556Z,0.50
2019-04-10T01:06:40.649Z,0.60
2019-04-10T01:09:21.487Z,0.50
2019-04-10T01:12:01.644Z,0.50
2019-04-10T01:14:42.148Z,0.50
2019-04-10T01:17:22.652Z,0.40
2019-04-10T01:20:03.031Z,0.50
2019-04-10T01:22:43.496Z,0.50
2019-04-10T01:25:24.126Z,0.80
2019-04-10T01:28:04.683Z,0.50
2019-04-10T01:30:44.504Z,1.00
2019-04-10T01:33:24.949Z,0.50
2019-04-10T01:36:04.869Z,2.00
2019-04-10T01:38:46.062Z,0.60
2019-04-10T01:41:26.215Z,0.40
2019-04-10T01:44:06.077Z,0.40
2019-04-10T01:46:46.556Z,0.90
2019-04-10T01:49:26.138Z,0.70
2019-04-10T01:52:06.960Z,0.40
2019-04-10T01:54:47.123Z,0.70
2019-04-10T01:57:28.771Z,0.60
2019-04-10T02:00:11.073Z,0.70
2019-04-10T02:02:51.883Z,0.40
2019-04-10T02:05:32.448Z,0.40
2019-04-10T02:08:13.103Z,0.90
2019-04-10T02:10:59.009Z,0.60
2019-04-10T02:13:39.345Z,0.50
2019-04-10T02:16:17.322Z,0.60
2019-04-10T02:19:03.912Z,0.60
2019-04-10T02:21:44.422Z,0.50
2019-04-10T02:24:25.128Z,0.50
2019-04-10T02:27:05.779Z,0.77
2019-04-10T02:29:46.072Z,0.60
2019-04-10T02:32:26.506Z,0.50
2019-04-10T02:35:08.519Z,0.70
2019-04-10T02:37:52.511Z,1.37
2019-04-10T02:40:30.964Z,1.50
2019-04-10T02:43:12.529Z,0.90
2019-04-10T02:45:53.064Z,0.77
2019-04-10T02:48:33.999Z,0.70
2019-04-10T02:51:13.790Z,0.67
2019-04-10T02:53:55.698Z,2.00
2019-04-10T02:56:36.665Z,0.50
2019-04-10T02:59:18.538Z,1.30
2019-04-10T03:02:00.297Z,0.60
2019-04-10T03:04:42.503Z,0.50
2019-04-10T03:07:23.876Z,0.53
2019-04-10T03:10:15.297Z,0.43
2019-04-10T03:12:46.407Z,0.40
2019-04-10T03:15:27.310Z,0.40
2019-04-10T03:18:08.358Z,1.63
2019-04-10T03:20:49.215Z,0.40
2019-04-10T03:23:29.828Z,0.70
2019-04-10T03:26:09.765Z,0.47
2019-04-10T03:28:49.645Z,0.67
2019-04-10T03:31:31.587Z,0.60
2019-04-10T03:34:34.258Z,0.60
2019-04-10T03:37:12.948Z,0.43
2019-04-10T03:39:53.257Z,0.50
2019-04-10T03:42:33.215Z,0.53
2019-04-10T03:45:13.650Z,0.50
2019-04-10T03:47:53.634Z,0.47
2019-04-10T03:50:36.182Z,0.57
2019-04-10T03:53:18.105Z,0.50
2019-04-10T03:55:59.200Z,0.50
2019-04-10T03:58:39.802Z,0.40
2019-04-10T04:01:20.559Z,0.50
2019-04-10T04:04:01.488Z,0.50
2019-04-10T04:06:42.020Z,0.40
2019-04-10T04:09:21.835Z,0.50
2019-04-10T04:12:02.338Z,0.40
2019-04-10T04:14:42.276Z,0.53
2019-04-10T04:17:22.253Z,0.40
2019-04-10T04:20:02.531Z,0.80
2019-04-10T04:22:43.484Z,0.47
2019-04-10T04:25:24.059Z,0.43
2019-04-10T04:28:04.636Z,0.47
2019-04-10T04:30:45.673Z,0.63
2019-04-10T04:33:26.175Z,0.53
2019-04-10T04:36:10.394Z,0.50
2019-04-10T04:38:51.345Z,0.50
2019-04-10T04:41:31.653Z,0.80
2019-04-10T04:44:12.389Z,0.50
2019-04-10T04:46:53.764Z,0.50
2019-04-10T04:49:35.727Z,0.60
2019-04-10T04:52:16.262Z,0.53
2019-04-10T04:54:59.681Z,0.50
2019-04-10T04:57:39.692Z,0.50
2019-04-10T05:00:21.457Z,0.50
2019-04-10T05:03:01.908Z,0.50
2019-04-10T05:05:41.732Z,0.50
2019-04-10T05:08:21.822Z,0.50
2019-04-10T05:11:02.201Z,1.17
2019-04-10T05:13:42.749Z,0.47
2019-04-10T05:16:22.747Z,0.43
2019-04-10T05:19:03.720Z,0.80
2019-04-10T05:21:43.674Z,0.60
2019-04-10T05:24:24.089Z,0.50
2019-04-10T05:27:02.435Z,0.50
2019-04-10T05:29:49.209Z,0.50
2019-04-10T05:32:28.551Z,0.40
2019-04-10T05:35:10.053Z,0.50
2019-04-10T05:37:49.929Z,0.43
2019-04-10T05:40:33.116Z,0.53
2019-04-10T05:43:13.486Z,0.60
2019-04-10T05:45:53.144Z,0.50
2019-04-10T05:48:33.456Z,0.50
2019-04-10T05:51:12.987Z,0.50
2019-04-10T05:53:55.115Z,0.40
2019-04-10T05:56:36.355Z,0.40
2019-04-10T05:59:16.456Z,0.63
2019-04-10T06:01:56.841Z,0.90
2019-04-10T06:04:37.747Z,0.43
2019-04-10T06:07:19.156Z,0.60
2019-04-10T06:10:04.820Z,0.70
2019-04-10T06:12:42.674Z,0.70
2019-04-10T06:15:23.237Z,0.50
2019-04-10T06:18:04.887Z,0.50
2019-04-10T06:20:45.266Z,0.50
2019-04-10T06:23:25.663Z,0.40
2019-04-10T06:26:06.867Z,0.40
2019-04-10T06:28:47.149Z,0.60
2019-04-10T06:31:26.864Z,0.70
2019-04-10T06:34:06.888Z,0.50
2019-04-10T06:36:47.183Z,0.60
2019-04-10T06:39:29.502Z,0.50
2019-04-10T06:42:12.023Z,0.60
2019-04-10T06:44:52.653Z,0.63
2019-04-10T06:47:32.548Z,0.40
2019-04-10T06:50:12.873Z,0.40
2019-04-10T06:52:53.057Z,0.70
2019-04-10T06:58:16.166Z,0.50
2019-04-10T07:00:56.252Z,0.65
2019-04-10T07:03:49.671Z,0.60
2019-04-10T07:06:21.961Z,0.50
2019-04-10T07:09:00.228Z,0.40
2019-04-10T07:11:40.211Z,0.40
2019-04-10T07:14:20.579Z,0.40
2019-04-10T07:17:05.349Z,0.60
2019-04-10T07:19:44.029Z,0.50
2019-04-10T07:22:24.888Z,0.63
2019-04-10T07:27:45.935Z,0.50
2019-04-10T07:30:26.669Z,0.57
2019-04-10T07:33:07.624Z,0.60
2019-04-10T07:35:46.440Z,0.60
2019-04-10T07:38:33.185Z,0.50
2019-04-10T07:41:18.314Z,0.60
2019-04-10T07:43:56.774Z,0.70
2019-04-10T07:46:38.119Z,1.43
2019-04-10T07:49:19.429Z,0.70
2019-04-10T07:52:00.919Z,0.50
2019-04-10T07:54:44.612Z,0.40
2019-04-10T07:57:24.830Z,0.60
2019-04-10T08:00:07.294Z,0.50
2019-04-10T08:02:47.203Z,0.50
2019-04-10T08:05:27.383Z,0.50
2019-04-10T08:08:08.570Z,0.50
2019-04-10T08:10:48.830Z,0.60
2019-04-10T08:13:28.891Z,0.50
2019-04-10T08:16:08.815Z,0.50
2019-04-10T08:18:49.806Z,0.60
2019-04-10T08:21:30.109Z,0.50
2019-04-10T08:24:11.459Z,1.93
2019-04-10T08:26:52.635Z,0.40
2019-04-10T08:29:32.882Z,0.50
2019-04-10T08:32:13.898Z,0.70
2019-04-10T08:34:53.516Z,0.40
2019-04-10T08:37:34.829Z,1.07
2019-04-10T08:40:15.684Z,0.50
2019-04-10T08:42:54.326Z,3.67
2019-04-10T08:45:48.111Z,0.70
2019-04-10T08:48:43.414Z,0.67
2019-04-10T08:54:03.259Z,0.40
2019-04-10T08:56:44.844Z,0.47
2019-04-10T08:59:24.581Z,0.40
2019-04-10T09:02:04.442Z,0.50
2019-04-10T09:04:46.852Z,0.40
2019-04-10T09:07:28.308Z,23.93
2019-04-10T09:10:07.718Z,24.73
2019-04-10T09:12:48.029Z,24.63
2019-04-10T09:15:29.951Z,25.60
2019-04-10T09:18:11.417Z,25.07
2019-04-10T09:20:51.156Z,23.70
2019-04-10T09:23:39.792Z,23.97
2019-04-10T09:26:13.496Z,22.67
2019-04-10T09:28:53.083Z,24.53
2019-04-10T09:36:59.969Z,23.43
2019-04-10T09:39:43.206Z,21.83
2019-04-10T09:42:24.065Z,22.53
2019-04-10T09:45:04.736Z,23.60
2019-04-10T09:47:44.168Z,20.70
2019-04-10T09:50:26.148Z,20.87
2019-04-10T09:53:06.403Z,23.30
2019-04-10T09:55:46.995Z,21.80
2019-04-10T09:58:27.274Z,22.30
2019-04-10T10:01:08.327Z,23.27
2019-04-10T10:03:48.688Z,20.73
2019-04-10T10:06:33.489Z,21.10
2019-04-10T10:09:12.666Z,20.00
2019-04-10T10:11:55.557Z,21.77
2019-04-10T10:14:35.886Z,21.63
2019-04-10T10:17:16.782Z,21.43
2019-04-10T10:19:57.624Z,20.67
2019-04-10T10:22:39.047Z,21.53
2019-04-10T10:25:19.594Z,17.93
2019-04-10T10:27:59.651Z,19.40
2019-04-10T10:33:20.241Z,18.57
2019-04-10T10:36:00.022Z,19.13
2019-04-10T10:38:40.697Z,18.90
2019-04-10T10:41:20.326Z,20.53
2019-04-10T10:44:00.615Z,19.40
2019-04-10T10:46:40.525Z,17.40
2019-04-10T10:52:17.655Z,17.17
2019-04-10T10:54:59.041Z,16.30
2019-04-10T10:57:39.717Z,16.27
2019-04-10T11:00:21.411Z,18.30
2019-04-10T11:03:02.274Z,17.40
2019-04-10T11:05:42.267Z,17.00
2019-04-10T11:08:22.079Z,20.00
2019-04-10T11:11:02.152Z,20.43
2019-04-10T11:13:43.172Z,18.60
2019-04-10T11:16:23.230Z,18.37
2019-04-10T11:19:04.757Z,17.53
2019-04-10T11:21:45.200Z,18.13
2019-04-10T11:24:25.524Z,18.87
2019-04-10T11:29:46.739Z,17.87
2019-04-10T11:35:19.225Z,18.30
2019-04-10T11:38:00.915Z,19.07
2019-04-10T11:40:41.994Z,18.53
2019-04-10T11:43:24.396Z,17.83
2019-04-10T11:46:05.158Z,18.90
2019-04-10T11:48:46.878Z,16.73
2019-04-10T11:51:30.251Z,16.60
2019-04-10T11:54:13.010Z,16.30
2019-04-10T11:56:54.949Z,17.50
2019-04-10T11:59:35.986Z,17.40
2019-04-10T12:02:20.416Z,18.03
2019-04-10T12:13:03.238Z,17.60
2019-04-10T12:15:43.554Z,18.80
2019-04-10T12:18:24.592Z,16.20
2019-04-10T12:21:05.192Z,16.73
2019-04-10T12:23:45.440Z,16.73
2019-04-10T12:26:25.858Z,15.60
2019-04-10T12:28:55.261Z,16.93
2019-04-10T12:31:42.131Z,17.73
2019-04-10T12:34:22.400Z,16.13
2019-04-10T12:37:02.848Z,17.37
2019-04-10T12:39:43.354Z,16.67
2019-04-10T12:42:23.952Z,14.97
2019-04-10T12:45:08.131Z,17.03
2019-04-10T12:47:48.705Z,17.73
2019-04-10T12:50:28.713Z,15.87
2019-04-10T12:53:09.401Z,14.83
2019-04-10T12:55:49.745Z,16.53
2019-04-10T12:58:30.895Z,14.77
2019-04-10T13:01:12.108Z,16.07
2019-04-10T13:03:53.499Z,14.80
2019-04-10T13:06:33.888Z,14.03
2019-04-10T13:09:14.474Z,14.53
2019-04-10T13:11:55.007Z,14.53
2019-04-10T13:14:34.937Z,14.63
2019-04-10T13:17:14.971Z,16.50
2019-04-10T13:19:55.601Z,16.47
2019-04-10T13:22:36.063Z,14.67
2019-04-10T13:25:16.401Z,15.57
2019-04-10T13:27:56.084Z,16.00
2019-04-10T13:30:46.801Z,13.80
2019-04-10T13:33:20.467Z,14.00
2019-04-10T13:36:00.229Z,12.73
2019-04-10T13:38:40.387Z,14.37
2019-04-10T13:41:20.714Z,14.80
2019-04-10T13:44:00.849Z,14.30
2019-04-10T13:46:41.055Z,15.23
2019-04-10T13:49:22.007Z,14.60
2019-04-10T13:52:01.977Z,14.37
2019-04-10T13:54:42.917Z,14.47
2019-04-10T13:57:24.403Z,13.20
2019-04-10T14:00:05.799Z,15.47
2019-04-10T14:02:49.938Z,14.23
2019-04-10T14:05:32.513Z,14.37
2019-04-10T14:08:12.588Z,14.10
2019-04-10T14:10:52.971Z,14.87
2019-04-10T14:13:33.202Z,13.10
2019-04-10T14:16:13.447Z,12.67
2019-04-10T14:18:53.664Z,20.43
2019-04-10T14:21:33.507Z,14.57
2019-04-10T14:24:13.652Z,13.73
2019-04-10T14:27:14.194Z,14.07
2019-04-10T14:29:54.576Z,14.17
2019-04-10T14:32:37.519Z,13.30
2019-04-10T14:35:18.918Z,15.23
2019-04-10T14:37:58.876Z,13.87
2019-04-10T14:40:40.078Z,14.30
2019-04-10T14:43:20.903Z,12.57
2019-04-10T14:46:01.152Z,14.13
2019-04-10T14:48:41.184Z,13.50
2019-04-10T14:51:21.974Z,13.03
2019-04-10T14:54:00.048Z,13.27
2019-04-10T14:56:47.108Z,12.80
2019-04-10T14:59:26.735Z,13.10
2019-04-10T15:02:09.108Z,12.77
2019-04-10T15:04:49.734Z,12.90
2019-04-10T15:07:33.318Z,12.17
2019-04-10T15:10:13.347Z,12.60
2019-04-10T15:12:53.360Z,11.10
2019-04-10T15:15:34.233Z,12.87
2019-04-10T15:18:15.004Z,11.60
2019-04-10T15:20:56.495Z,12.97
2019-04-10T15:23:36.569Z,13.13
2019-04-10T15:26:17.738Z,13.83
2019-04-10T15:28:58.290Z,13.77
2019-04-10T15:31:37.881Z,13.20
2019-04-10T15:34:18.355Z,12.90
2019-04-10T15:36:58.546Z,12.83
2019-04-10T15:39:40.138Z,13.57
2019-04-10T15:42:20.185Z,14.57
2019-04-10T15:45:00.780Z,12.23
2019-04-10T15:47:49.218Z,15.90
2019-04-10T15:50:22.545Z,13.67
2019-04-10T15:53:02.731Z,11.70
2019-04-10T15:55:42.745Z,11.60
2019-04-10T15:58:23.519Z,13.83
2019-04-10T16:01:05.980Z,12.53
2019-04-10T16:03:47.079Z,14.47
2019-04-10T16:06:29.250Z,13.70
2019-04-10T16:09:09.665Z,13.63
2019-04-10T16:15:04.986Z,13.37
2019-04-10T16:21:02.121Z,13.57
2019-04-10T16:23:47.593Z,12.50
2019-04-10T16:26:29.228Z,12.37
2019-04-10T16:29:09.628Z,13.90
2019-04-10T16:31:50.291Z,13.20
2019-04-10T16:34:30.341Z,12.70
2019-04-10T16:37:10.421Z,12.83
2019-04-10T16:39:58.612Z,12.20
2019-04-10T16:42:32.777Z,12.00
2019-04-10T16:45:13.549Z,15.80
2019-04-10T16:47:53.266Z,13.13
2019-04-10T16:50:34.169Z,11.17
2019-04-10T16:53:18.118Z,12.53
2019-04-10T16:55:59.087Z,13.13
2019-04-10T16:58:41.155Z,11.60
2019-04-10T17:01:22.474Z,13.60
2019-04-10T17:04:02.756Z,13.63
2019-04-10T17:06:44.936Z,12.83
2019-04-10T17:09:26.935Z,13.73
2019-04-10T17:12:06.959Z,15.60
2019-04-10T17:14:47.820Z,14.27
2019-04-10T17:17:28.420Z,12.70
2019-04-10T17:20:08.682Z,11.80
2019-04-10T17:22:49.789Z,14.37
2019-04-10T17:25:30.487Z,14.33
2019-04-10T17:28:14.271Z,13.20
2019-04-10T17:30:56.032Z,13.93
2019-04-10T17:33:36.345Z,12.33
2019-04-10T17:36:16.906Z,12.33
2019-04-10T17:38:56.444Z,12.53
2019-04-10T17:41:36.752Z,14.33
2019-04-10T17:44:17.951Z,12.60
2019-04-10T17:46:58.268Z,12.37
2019-04-10T17:49:39.219Z,13.17
2019-04-10T17:52:19.292Z,12.57
2019-04-10T17:54:59.402Z,13.10
2019-04-10T17:57:42.900Z,13.07
2019-04-10T18:03:49.431Z,13.30
2019-04-10T18:06:23.507Z,13.40
2019-04-10T18:09:01.635Z,12.60
2019-04-10T18:11:50.386Z,14.70
2019-04-10T18:14:31.197Z,13.20
2019-04-10T18:17:11.293Z,14.60
2019-04-10T18:19:50.954Z,13.33
2019-04-10T18:22:30.992Z,12.83
2019-04-10T18:25:11.864Z,14.13
2019-04-10T18:27:52.504Z,11.80
2019-04-10T18:30:34.555Z,12.70
2019-04-10T18:33:15.215Z,12.20
2019-04-10T18:35:55.413Z,12.83
2019-04-10T18:38:35.589Z,14.07
2019-04-10T18:41:15.749Z,12.90
2019-04-10T18:43:56.343Z,13.00
2019-04-10T18:46:37.656Z,12.63
2019-04-10T18:49:18.996Z,13.93
2019-04-10T18:52:01.926Z,12.00
2019-04-10T18:54:43.511Z,12.07
2019-04-10T18:57:24.074Z,12.50
2019-04-10T19:09:46.975Z,12.10
2019-04-10T19:12:27.058Z,13.40
2019-04-10T19:15:07.161Z,12.60
2019-04-10T19:17:47.180Z,12.97
2019-04-10T19:20:27.254Z,13.60
2019-04-10T19:23:07.160Z,13.50
2019-04-10T19:25:49.139Z,11.37
2019-04-10T19:28:35.068Z,12.73
2019-04-10T19:31:19.107Z,12.50
2019-04-10T19:33:56.968Z,12.30
2019-04-10T19:36:37.842Z,10.77
2019-04-10T19:39:18.202Z,12.27
2019-04-10T19:41:58.304Z,13.40
2019-04-10T19:44:39.100Z,11.80
2019-04-10T19:47:19.936Z,11.43
2019-04-10T19:49:59.812Z,11.70
2019-04-10T19:52:40.337Z,12.97
2019-04-10T19:55:20.124Z,12.07
2019-04-10T19:58:00.233Z,11.53
2019-04-10T20:00:40.932Z,12.50
2019-04-10T20:03:21.719Z,11.50
2019-04-10T20:06:01.676Z,12.30
2019-04-10T20:08:42.404Z,12.13
2019-04-10T20:11:33.799Z,10.70
2019-04-10T20:14:06.303Z,11.70
2019-04-10T20:16:47.183Z,12.00
2019-04-10T20:19:31.419Z,11.37
2019-04-10T20:22:12.731Z,12.03
2019-04-10T20:24:53.439Z,12.50
2019-04-10T20:27:34.135Z,10.50
2019-04-10T20:30:15.234Z,9.63
2019-04-10T20:32:56.479Z,11.27
2019-04-10T20:35:36.259Z,10.23
2019-04-10T20:38:16.152Z,10.10
2019-04-10T20:40:55.837Z,12.10
2019-04-10T20:43:35.635Z,9.10
2019-04-10T20:46:15.986Z,13.27
2019-04-10T20:48:55.624Z,10.03
2019-04-10T20:51:35.609Z,10.37
2019-04-10T20:54:15.501Z,8.90
2019-04-10T20:56:57.235Z,10.23
2019-04-10T20:59:37.523Z,11.00
2019-04-10T21:02:18.084Z,10.70
2019-04-10T21:05:03.167Z,11.27
2019-04-10T21:07:40.776Z,10.33
2019-04-10T21:10:21.356Z,11.03
2019-04-10T21:13:01.433Z,10.13
2019-04-10T21:15:42.254Z,10.00
2019-04-10T21:18:22.155Z,9.47
2019-04-10T21:21:10.208Z,9.10
2019-04-10T21:24:11.401Z,10.27
2019-04-10T21:26:52.755Z,9.90
2019-04-10T21:29:52.721Z,9.53
2019-04-10T21:33:04.241Z,9.43
2019-04-10T21:35:43.749Z,10.25
2019-04-10T21:38:23.656Z,10.48
2019-04-10T21:41:05.839Z,9.93
2019-04-10T21:43:47.608Z,11.90
2019-04-10T21:46:28.450Z,10.08
2019-04-10T21:49:08.348Z,14.10
2019-04-10T21:51:48.035Z,12.78
2019-04-10T21:54:29.271Z,11.83
2019-04-10T21:57:09.704Z,9.07
2019-04-10T21:59:49.632Z,11.15
2019-04-10T22:02:30.158Z,13.55
2019-04-10T22:05:10.812Z,10.30
2019-04-10T22:08:10.976Z,11.05
2019-04-10T22:10:50.880Z,10.90
2019-04-10T22:13:30.626Z,11.85
2019-04-10T22:16:13.482Z,10.40
2019-04-10T22:18:54.138Z,13.83
2019-04-10T22:21:34.914Z,11.38
2019-04-10T22:24:15.758Z,12.15
2019-04-10T22:26:55.853Z,13.05
2019-04-10T22:29:36.894Z,12.33
2019-04-10T22:32:16.842Z,12.35
2019-04-10T22:34:57.008Z,12.88
2019-04-10T22:37:37.706Z,14.40
2019-04-10T22:40:18.056Z,13.25
2019-04-10T22:42:57.857Z,13.95
2019-04-10T22:45:38.106Z,15.45
2019-04-10T22:48:18.898Z,12.98
2019-04-10T22:50:59.130Z,13.55
2019-04-10T22:53:39.644Z,13.28
2019-04-10T22:56:20.962Z,13.58
2019-04-10T22:59:01.722Z,14.80
2019-04-10T23:01:43.021Z,14.65
2019-04-10T23:04:23.448Z,13.45
2019-04-10T23:07:03.978Z,13.78
2019-04-10T23:09:44.450Z,14.47
2019-04-10T23:12:24.511Z,15.10
2019-04-10T23:15:04.496Z,13.03
2019-04-10T23:17:45.491Z,13.98
2019-04-10T23:20:25.897Z,15.63
2019-04-10T23:23:06.500Z,15.70
2019-04-10T23:25:46.913Z,15.65
2019-04-10T23:28:27.335Z,14.43
2019-04-10T23:31:07.670Z,14.85
2019-04-10T23:33:48.281Z,14.13
2019-04-10T23:36:28.093Z,15.00
2019-04-10T23:39:08.205Z,14.93
2019-04-10T23:44:29.117Z,18.40
2019-04-10T23:47:09.622Z,15.10
2019-04-10T23:49:50.031Z,14.85
2019-04-10T23:52:29.766Z,15.43
2019-04-10T23:55:10.134Z,14.65
2019-04-10T23:57:50.102Z,14.78
